createdAt,value
2023-02-18T00:00:36.181Z,7.22
2023-02-18T00:03:59.773Z,6.80
2023-02-18T00:07:24.708Z,4.50
2023-02-18T00:10:49.746Z,4.40
2023-02-18T00:14:13.736Z,4.00
2023-02-18T00:17:37.912Z,4.13
2023-02-18T00:21:03.497Z,3.47
2023-02-18T00:24:25.111Z,3.28
2023-02-18T00:27:49.034Z,3.15
2023-02-18T00:31:18.998Z,2.45
2023-02-18T00:34:45.336Z,2.70
2023-02-18T00:38:06.891Z,2.60
2023-02-18T00:41:29.703Z,2.58
2023-02-18T00:44:55.808Z,2.20
2023-02-18T00:48:17.552Z,2.40
2023-02-18T00:51:39.518Z,2.17
2023-02-18T00:55:05.913Z,2.28
2023-02-18T00:58:27.881Z,2.15
2023-02-18T01:01:49.553Z,2.03
2023-02-18T01:05:11.282Z,1.90
2023-02-18T01:08:36.185Z,2.10
2023-02-18T01:11:57.790Z,1.85
2023-02-18T01:15:21.800Z,1.98
2023-02-18T01:18:43.585Z,1.90
2023-02-18T01:22:06.798Z,1.83
2023-02-18T01:25:28.564Z,1.50
2023-02-18T01:28:50.217Z,1.58
2023-02-18T01:32:17.654Z,1.40
2023-02-18T01:35:40.569Z,1.30
2023-02-18T01:39:02.154Z,1.65
2023-02-18T01:42:26.330Z,1.20
2023-02-18T01:45:55.229Z,1.00
2023-02-18T01:49:23.834Z,1.00
2023-02-18T01:52:47.667Z,1.20
2023-02-18T01:56:12.523Z,1.20
2023-02-18T01:59:38.908Z,1.60
2023-02-18T02:03:00.538Z,1.00
2023-02-18T02:06:28.146Z,0.85
2023-02-18T02:09:56.024Z,1.13
2023-02-18T02:13:57.489Z,0.90
2023-02-18T02:17:31.158Z,0.93
2023-02-18T02:21:29.753Z,1.02
2023-02-18T02:25:11.442Z,1.10
2023-02-18T02:28:51.342Z,1.08
2023-02-18T02:32:31.223Z,0.73
2023-02-18T02:36:04.810Z,1.10
2023-02-18T02:39:30.224Z,0.98
2023-02-18T02:43:06.911Z,0.93
2023-02-18T02:46:46.058Z,0.70
2023-02-18T02:50:13.606Z,0.82
2023-02-18T02:53:44.000Z,0.90
2023-02-18T02:57:16.551Z,1.55
2023-02-18T03:00:46.771Z,3.22
2023-02-18T03:04:13.699Z,0.90
2023-02-18T03:08:00.681Z,0.98
2023-02-18T03:11:22.757Z,1.08
2023-02-18T03:14:53.055Z,0.80
2023-02-18T03:18:33.323Z,1.00
2023-02-18T03:22:07.628Z,1.00
2023-02-18T03:25:31.670Z,0.95
2023-02-18T03:29:02.368Z,0.95
2023-02-18T03:32:29.561Z,0.90
2023-02-18T03:35:52.229Z,0.80
2023-02-18T03:39:19.151Z,0.98
2023-02-18T03:42:40.926Z,0.80
2023-02-18T03:46:05.215Z,0.75
2023-02-18T03:49:26.990Z,0.80
2023-02-18T03:52:48.722Z,0.90
2023-02-18T03:56:10.512Z,0.80
2023-02-18T03:59:32.319Z,0.93
2023-02-18T04:02:56.259Z,1.13
2023-02-18T04:06:17.880Z,0.80
2023-02-18T04:09:41.751Z,0.98
2023-02-18T04:13:08.044Z,0.90
2023-02-18T04:16:29.977Z,1.00
2023-02-18T04:19:51.579Z,0.63
2023-02-18T04:23:13.432Z,1.15
2023-02-18T04:26:35.074Z,1.52
2023-02-18T04:29:56.673Z,1.10
2023-02-18T04:33:20.949Z,0.90
2023-02-18T04:36:45.173Z,1.00
2023-02-18T04:40:07.878Z,1.10
2023-02-18T04:43:31.772Z,1.00
2023-02-18T04:46:56.127Z,0.90
2023-02-18T04:50:20.898Z,1.25
2023-02-18T04:53:46.444Z,5.50
2023-02-18T04:57:08.038Z,1.00
2023-02-18T05:00:31.716Z,0.90
2023-02-18T05:03:57.888Z,0.98
2023-02-18T05:07:19.454Z,0.90
2023-02-18T05:10:46.001Z,0.95
2023-02-18T05:14:07.670Z,1.58
2023-02-18T05:17:29.599Z,0.60
2023-02-18T05:20:53.451Z,1.25
2023-02-18T05:24:15.114Z,0.82
2023-02-18T05:27:36.702Z,1.30
2023-02-18T05:31:00.631Z,1.10
2023-02-18T05:34:22.324Z,1.10
2023-02-18T05:37:43.950Z,4.43
2023-02-18T05:41:05.594Z,1.20
2023-02-18T05:44:30.452Z,1.17
2023-02-18T05:47:52.106Z,1.33
2023-02-18T05:51:16.138Z,1.25
2023-02-18T05:54:41.397Z,1.30
2023-02-18T05:58:05.618Z,1.20
2023-02-18T06:01:27.195Z,1.30
2023-02-18T06:04:51.291Z,1.30
2023-02-18T06:08:12.871Z,1.30
2023-02-18T06:11:37.516Z,1.27
2023-02-18T06:15:01.346Z,1.17
2023-02-18T06:18:25.584Z,1.60
2023-02-18T06:21:47.195Z,1.63
2023-02-18T06:25:11.111Z,2.15
2023-02-18T06:28:32.852Z,1.60
2023-02-18T06:31:54.579Z,5.20
2023-02-18T06:35:16.228Z,1.15
2023-02-18T06:38:43.776Z,1.02
2023-02-18T06:42:07.560Z,1.00
2023-02-18T06:45:31.689Z,1.00
2023-02-18T06:48:55.801Z,1.00
2023-02-18T06:52:19.996Z,0.80
2023-02-18T06:55:44.649Z,0.90
2023-02-18T06:59:08.588Z,0.80
2023-02-18T07:02:30.167Z,0.75
2023-02-18T07:05:51.801Z,0.80
2023-02-18T07:09:15.725Z,0.80
2023-02-18T07:12:37.402Z,0.65
2023-02-18T07:15:59.038Z,0.90
2023-02-18T07:19:20.976Z,0.68
2023-02-18T07:22:45.585Z,0.70
2023-02-18T07:26:14.428Z,0.75
2023-02-18T07:29:36.049Z,0.77
2023-02-18T07:32:57.678Z,0.80
2023-02-18T07:36:19.262Z,0.80
2023-02-18T07:39:42.444Z,1.00
2023-02-18T07:43:04.042Z,1.00
2023-02-18T07:46:28.177Z,1.25
2023-02-18T07:49:52.153Z,0.80
2023-02-18T07:53:18.522Z,1.38
2023-02-18T07:56:44.844Z,0.80
2023-02-18T08:00:09.892Z,1.90
2023-02-18T08:03:32.380Z,1.25
2023-02-18T08:06:56.918Z,1.30
2023-02-18T08:10:18.580Z,0.80
2023-02-18T08:13:40.371Z,0.80
2023-02-18T08:17:04.228Z,0.55
2023-02-18T08:20:30.483Z,0.70
2023-02-18T08:23:54.983Z,0.70
2023-02-18T08:27:16.654Z,0.70
2023-02-18T08:30:38.308Z,0.85
2023-02-18T08:34:03.744Z,0.88
2023-02-18T08:37:25.626Z,0.98
2023-02-18T08:40:49.937Z,0.63
2023-02-18T08:44:11.627Z,0.80
2023-02-18T08:48:18.537Z,1.00
2023-02-18T08:51:22.898Z,0.90
2023-02-18T08:54:47.045Z,0.90
2023-02-18T08:58:08.859Z,1.02
2023-02-18T09:01:32.695Z,1.35
2023-02-18T09:04:54.266Z,0.93
2023-02-18T09:08:15.911Z,0.80
2023-02-18T09:11:39.728Z,0.80
2023-02-18T09:15:07.683Z,1.17
2023-02-18T09:18:29.316Z,0.98
2023-02-18T09:21:54.165Z,0.90
2023-02-18T09:25:15.825Z,1.10
2023-02-18T09:28:37.507Z,0.80
2023-02-18T09:32:04.017Z,0.90
2023-02-18T09:35:25.889Z,0.60
2023-02-18T09:38:47.748Z,0.65
2023-02-18T09:42:17.655Z,1.10
2023-02-18T09:45:42.195Z,1.10
2023-02-18T09:49:08.225Z,0.77
2023-02-18T09:52:34.716Z,1.10
2023-02-18T09:55:57.859Z,0.70
2023-02-18T09:59:25.044Z,0.63
2023-02-18T10:02:55.245Z,0.85
2023-02-18T10:06:23.031Z,0.80
2023-02-18T10:09:46.205Z,0.77
2023-02-18T10:13:20.667Z,0.73
2023-02-18T10:16:45.600Z,0.88
2023-02-18T10:20:10.379Z,0.70
2023-02-18T10:23:36.196Z,1.95
2023-02-18T10:27:03.240Z,0.75
2023-02-18T10:30:41.345Z,0.80
2023-02-18T10:34:31.438Z,0.45
2023-02-18T10:38:08.242Z,0.80
2023-02-18T10:41:41.875Z,1.00
2023-02-18T10:45:15.209Z,6.20
2023-02-18T10:48:55.851Z,0.82
2023-02-18T10:52:18.908Z,0.80
2023-02-18T10:55:46.012Z,0.90
2023-02-18T10:59:14.389Z,1.05
2023-02-18T11:06:02.543Z,2.30
2023-02-18T11:09:48.302Z,1.00
2023-02-18T11:13:13.430Z,0.82
2023-02-18T11:16:46.475Z,0.80
2023-02-18T11:20:37.017Z,1.30
2023-02-18T11:24:10.735Z,6.63
2023-02-18T11:27:46.863Z,1.10
2023-02-18T11:31:10.279Z,0.90
2023-02-18T11:34:33.594Z,0.88
2023-02-18T11:37:58.473Z,1.13
2023-02-18T11:41:33.725Z,1.10
2023-02-18T11:45:00.371Z,1.13
2023-02-18T11:48:26.385Z,0.95
2023-02-18T11:51:49.455Z,1.35
2023-02-18T11:55:27.283Z,1.13
2023-02-18T11:58:50.393Z,1.27
2023-02-18T12:02:11.969Z,1.30
2023-02-18T12:05:36.882Z,1.10
2023-02-18T12:09:04.434Z,1.48
2023-02-18T12:13:02.264Z,1.40
2023-02-18T12:17:34.333Z,1.27
2023-02-18T12:21:22.271Z,1.30
2023-02-18T12:25:03.031Z,1.67
2023-02-18T12:28:42.540Z,1.88
2023-02-18T12:32:13.315Z,1.23
2023-02-18T12:35:51.205Z,1.23
2023-02-18T12:39:18.501Z,1.33
2023-02-18T12:43:13.298Z,2.17
2023-02-18T12:46:59.616Z,1.20
2023-02-18T12:50:39.785Z,1.27
2023-02-18T12:54:13.505Z,1.10
2023-02-18T12:57:35.223Z,0.75
2023-02-18T13:01:05.122Z,0.95
2023-02-18T13:04:38.455Z,0.65
2023-02-18T13:08:24.900Z,0.70
2023-02-18T13:11:55.282Z,0.70
2023-02-18T13:15:31.534Z,0.57
2023-02-18T13:19:04.158Z,0.70
2023-02-18T13:22:28.930Z,0.35
2023-02-18T13:25:58.467Z,0.50
2023-02-18T13:29:26.844Z,0.68
2023-02-18T13:33:10.246Z,0.60
2023-02-18T13:36:47.856Z,0.50
2023-02-18T13:40:30.051Z,0.50
2023-02-18T13:43:54.300Z,0.50
2023-02-18T13:47:35.820Z,0.40
2023-02-18T13:51:04.343Z,0.40
2023-02-18T13:54:41.633Z,0.50
2023-02-18T13:58:05.464Z,0.90
2023-02-18T14:01:46.905Z,0.65
2023-02-18T14:05:08.570Z,0.30
2023-02-18T14:08:33.303Z,0.30
2023-02-18T14:12:18.057Z,0.45
2023-02-18T14:15:55.666Z,0.60
2023-02-18T14:19:32.767Z,0.45
2023-02-18T14:22:56.795Z,0.50
2023-02-18T14:26:28.031Z,0.47
2023-02-18T14:29:54.359Z,0.60
2023-02-18T14:33:17.337Z,0.40
2023-02-18T14:37:15.586Z,0.30
2023-02-18T14:40:58.704Z,0.30
2023-02-18T14:44:47.403Z,0.47
2023-02-18T14:48:14.233Z,0.47
2023-02-18T14:51:40.543Z,0.50
2023-02-18T14:55:04.795Z,0.82
2023-02-18T14:58:37.753Z,0.70
2023-02-18T15:02:01.579Z,0.57
2023-02-18T15:05:26.036Z,0.60
2023-02-18T15:08:50.564Z,0.60
2023-02-18T15:12:19.030Z,10.05
2023-02-18T15:15:47.424Z,13.77
2023-02-18T15:19:15.308Z,15.55
2023-02-18T15:22:39.191Z,15.38
2023-02-18T15:26:00.817Z,16.05
2023-02-18T15:29:25.581Z,16.02
2023-02-18T15:32:55.018Z,16.85
2023-02-18T15:36:19.883Z,17.55
2023-02-18T15:39:43.182Z,17.25
2023-02-18T15:43:06.859Z,18.33
2023-02-18T15:46:29.019Z,18.92
2023-02-18T15:49:56.914Z,19.65
2023-02-18T15:53:20.829Z,20.70
2023-02-18T15:56:46.476Z,22.05
2023-02-18T16:00:11.377Z,22.88
2023-02-18T16:03:54.169Z,22.27
2023-02-18T16:07:58.849Z,22.65
2023-02-18T16:11:25.474Z,22.98
2023-02-18T16:14:49.254Z,24.38
2023-02-18T16:18:35.488Z,24.90
2023-02-18T16:22:05.863Z,24.65
2023-02-18T16:25:38.649Z,24.80
2023-02-18T16:29:16.619Z,25.73
2023-02-18T16:32:40.530Z,25.88
2023-02-18T16:36:02.606Z,25.98
2023-02-18T16:39:28.430Z,25.95
2023-02-18T16:42:50.963Z,28.35
2023-02-18T16:46:18.367Z,27.42
2023-02-18T16:49:41.819Z,28.55
2023-02-18T16:53:05.969Z,29.42
2023-02-18T16:56:32.475Z,31.17
2023-02-18T16:59:54.176Z,28.50
2023-02-18T17:03:16.750Z,30.10
2023-02-18T17:06:38.797Z,30.75
2023-02-18T17:10:02.650Z,29.45
2023-02-18T17:13:28.547Z,31.98
2023-02-18T17:16:53.374Z,29.42
2023-02-18T17:20:15.372Z,30.75
2023-02-18T17:23:39.608Z,30.45
2023-02-18T17:27:01.279Z,30.13
2023-02-18T17:30:23.064Z,31.25
2023-02-18T17:33:47.575Z,30.02
2023-02-18T17:37:15.338Z,32.67
2023-02-18T17:40:37.300Z,32.80
2023-02-18T17:43:59.165Z,33.42
2023-02-18T17:47:21.087Z,33.17
2023-02-18T17:50:42.843Z,35.67
2023-02-18T17:54:13.929Z,38.72
2023-02-18T17:57:37.789Z,32.83
2023-02-18T18:01:01.649Z,32.08
2023-02-18T18:04:23.306Z,33.42
2023-02-18T18:07:47.274Z,32.40
2023-02-18T18:11:19.198Z,31.77
2023-02-18T18:14:40.868Z,31.65
2023-02-18T18:18:02.580Z,33.92
2023-02-18T18:21:31.804Z,32.38
2023-02-18T18:24:53.409Z,34.17
2023-02-18T18:28:15.644Z,33.22
2023-02-18T18:31:37.616Z,32.28
2023-02-18T18:34:59.350Z,32.50
2023-02-18T18:38:24.989Z,33.03
2023-02-18T18:41:47.109Z,32.08
2023-02-18T18:45:19.899Z,33.72
2023-02-18T18:48:41.997Z,32.08
2023-02-18T18:52:03.893Z,31.60
2023-02-18T18:55:34.762Z,31.15
2023-02-18T18:58:56.384Z,30.02
2023-02-18T19:02:19.742Z,31.75
2023-02-18T19:05:43.191Z,30.95
2023-02-18T19:09:04.826Z,32.88
2023-02-18T19:12:28.614Z,32.20
2023-02-18T19:16:01.576Z,32.75
2023-02-18T19:19:24.653Z,32.42
2023-02-18T19:22:46.339Z,31.48
2023-02-18T19:26:08.783Z,32.00
2023-02-18T19:29:30.389Z,31.70
2023-02-18T19:32:57.264Z,32.33
2023-02-18T19:36:19.349Z,29.92
2023-02-18T19:39:40.891Z,30.45
2023-02-18T19:43:05.872Z,30.67
2023-02-18T19:46:32.475Z,30.38
2023-02-18T19:49:54.799Z,29.30
2023-02-18T19:53:16.334Z,30.17
2023-02-18T19:56:37.980Z,26.67
2023-02-18T19:59:59.601Z,27.15
2023-02-18T20:03:21.421Z,26.88
2023-02-18T20:06:45.110Z,27.75
2023-02-18T20:10:10.049Z,26.70
2023-02-18T20:13:31.639Z,28.10
2023-02-18T20:16:55.800Z,28.85
2023-02-18T20:20:20.820Z,26.38
2023-02-18T20:23:44.919Z,26.60
2023-02-18T20:27:07.551Z,25.63
2023-02-18T20:30:29.322Z,25.20
2023-02-18T20:33:50.909Z,23.65
2023-02-18T20:37:12.693Z,24.10
2023-02-18T20:40:34.255Z,24.63
2023-02-18T20:44:00.302Z,22.80
2023-02-18T20:47:22.041Z,23.35
2023-02-18T20:50:43.913Z,22.55
2023-02-18T20:54:09.238Z,21.17
2023-02-18T20:57:30.814Z,22.98
2023-02-18T21:01:04.181Z,21.92
2023-02-18T21:04:30.567Z,22.63
2023-02-18T21:07:52.134Z,23.77
2023-02-18T21:11:17.059Z,21.08
2023-02-18T21:14:38.637Z,22.15
2023-02-18T21:18:02.691Z,23.52
2023-02-18T21:21:24.862Z,24.25
2023-02-18T21:24:49.193Z,22.98
2023-02-18T21:28:10.766Z,21.80
2023-02-18T21:31:37.898Z,23.63
2023-02-18T21:34:59.543Z,23.20
2023-02-18T21:38:21.179Z,21.52
2023-02-18T21:41:42.744Z,22.70
2023-02-18T21:45:07.423Z,21.38
2023-02-18T21:48:47.484Z,20.48
2023-02-18T21:52:09.554Z,19.13
2023-02-18T21:55:31.179Z,18.52
2023-02-18T21:58:58.028Z,17.40
2023-02-18T22:02:25.255Z,13.93
2023-02-18T22:05:46.893Z,12.18
2023-02-18T22:09:08.958Z,8.15
2023-02-18T22:12:32.058Z,3.03
2023-02-18T22:16:01.369Z,2.90
2023-02-18T22:19:23.233Z,2.50
2023-02-18T22:22:44.815Z,2.75
2023-02-18T22:26:10.359Z,2.88
2023-02-18T22:29:32.712Z,2.38
2023-02-18T22:32:56.638Z,2.85
2023-02-18T22:36:20.463Z,2.35
2023-02-18T22:39:47.316Z,2.05
2023-02-18T22:43:11.355Z,2.22
2023-02-18T22:46:34.953Z,1.92
2023-02-18T22:49:58.824Z,1.80
2023-02-18T22:53:20.640Z,1.80
2023-02-18T22:56:47.889Z,1.50
2023-02-18T23:00:10.709Z,1.60
2023-02-18T23:03:32.648Z,1.60
2023-02-18T23:06:55.642Z,1.80
2023-02-18T23:10:18.465Z,1.60
2023-02-18T23:14:02.962Z,1.42
2023-02-18T23:17:24.572Z,1.65
2023-02-18T23:21:04.726Z,1.50
2023-02-18T23:24:26.298Z,1.60
2023-02-18T23:27:47.985Z,1.52
2023-02-18T23:31:10.039Z,1.73
2023-02-18T23:34:32.168Z,1.60
2023-02-18T23:38:05.999Z,1.45
2023-02-18T23:41:30.610Z,1.30
2023-02-18T23:44:56.866Z,1.50
2023-02-18T23:48:20.831Z,13.00
2023-02-18T23:51:42.936Z,1.88
2023-02-18T23:55:05.073Z,1.27
2023-02-18T23:58:28.715Z,1.30
